sensor_id;sensor_type;location;lat;lon;timestamp;P1;durP1;ratioP1;P2;durP2;ratioP2
69170;SDS011;56279;47.902;12.308;2022-08-07T00:00:35;7.88;;;4.45;;
69170;SDS011;56279;47.902;12.308;2022-08-07T00:02:37;8.88;;;4.45;;
69170;SDS011;56279;47.902;12.308;2022-08-07T00:04:39;8.55;;;4.70;;
69170;SDS011;56279;47.902;12.308;2022-08-07T00:06:40;8.87;;;4.70;;
69170;SDS011;56279;47.902;12.308;2022-08-07T00:08:41;8.60;;;4.53;;
69170;SDS011;56279;47.902;12.308;2022-08-07T00:10:42;7.47;;;4.00;;
69170;SDS011;56279;47.902;12.308;2022-08-07T00:12:44;9.27;;;5.57;;
69170;SDS011;56279;47.902;12.308;2022-08-07T00:14:45;8.57;;;4.43;;
69170;SDS011;56279;47.902;12.308;2022-08-07T00:16:47;7.50;;;4.70;;
69170;SDS011;56279;47.902;12.308;2022-08-07T00:18:48;8.25;;;4.43;;
69170;SDS011;56279;47.902;12.308;2022-08-07T00:20:57;6.75;;;3.85;;
69170;SDS011;56279;47.902;12.308;2022-08-07T00:23:00;7.40;;;4.45;;
69170;SDS011;56279;47.902;12.308;2022-08-07T00:25:05;8.15;;;4.55;;
69170;SDS011;56279;47.902;12.308;2022-08-07T00:27:07;8.13;;;4.23;;
69170;SDS011;56279;47.902;12.308;2022-08-07T00:29:09;8.95;;;4.60;;
69170;SDS011;56279;47.902;12.308;2022-08-07T00:31:10;7.38;;;4.07;;
69170;SDS011;56279;47.902;12.308;2022-08-07T00:33:11;7.85;;;4.60;;
69170;SDS011;56279;47.902;12.308;2022-08-07T00:35:13;7.03;;;4.70;;
69170;SDS011;56279;47.902;12.308;2022-08-07T00:37:15;7.17;;;4.17;;
69170;SDS011;56279;47.902;12.308;2022-08-07T00:39:17;7.40;;;4.15;;
69170;SDS011;56279;47.902;12.308;2022-08-07T00:41:26;9.70;;;4.38;;
69170;SDS011;56279;47.902;12.308;2022-08-07T00:43:32;7.53;;;4.47;;
69170;SDS011;56279;47.902;12.308;2022-08-07T00:45:34;7.97;;;4.53;;
69170;SDS011;56279;47.902;12.308;2022-08-07T00:47:35;7.53;;;4.23;;
69170;SDS011;56279;47.902;12.308;2022-08-07T00:49:37;8.25;;;4.15;;
69170;SDS011;56279;47.902;12.308;2022-08-07T00:51:39;8.05;;;4.60;;
69170;SDS011;56279;47.902;12.308;2022-08-07T00:53:40;7.78;;;4.65;;
69170;SDS011;56279;47.902;12.308;2022-08-07T00:55:41;9.20;;;4.68;;
69170;SDS011;56279;47.902;12.308;2022-08-07T00:57:43;7.50;;;5.00;;
69170;SDS011;56279;47.902;12.308;2022-08-07T00:59:44;13.57;;;4.85;;
69170;SDS011;56279;47.902;12.308;2022-08-07T01:01:46;8.98;;;5.30;;
69170;SDS011;56279;47.902;12.308;2022-08-07T01:03:48;7.80;;;4.75;;
69170;SDS011;56279;47.902;12.308;2022-08-07T01:05:51;8.00;;;4.65;;
69170;SDS011;56279;47.902;12.308;2022-08-07T01:07:55;10.37;;;5.33;;
69170;SDS011;56279;47.902;12.308;2022-08-07T01:09:57;8.18;;;4.93;;
69170;SDS011;56279;47.902;12.308;2022-08-07T01:11:58;6.78;;;4.72;;
69170;SDS011;56279;47.902;12.308;2022-08-07T01:14:00;8.13;;;4.95;;
69170;SDS011;56279;47.902;12.308;2022-08-07T01:16:02;7.80;;;4.68;;
69170;SDS011;56279;47.902;12.308;2022-08-07T01:18:05;8.50;;;4.27;;
69170;SDS011;56279;47.902;12.308;2022-08-07T01:20:08;6.93;;;4.60;;
69170;SDS011;56279;47.902;12.308;2022-08-07T01:22:11;12.13;;;4.28;;
69170;SDS011;56279;47.902;12.308;2022-08-07T01:24:15;7.93;;;4.10;;
69170;SDS011;56279;47.902;12.308;2022-08-07T01:26:17;7.50;;;4.60;;
69170;SDS011;56279;47.902;12.308;2022-08-07T01:28:21;8.97;;;5.07;;
69170;SDS011;56279;47.902;12.308;2022-08-07T01:30:25;8.43;;;4.63;;
69170;SDS011;56279;47.902;12.308;2022-08-07T01:32:30;7.07;;;4.03;;
69170;SDS011;56279;47.902;12.308;2022-08-07T01:34:33;7.32;;;4.63;;
69170;SDS011;56279;47.902;12.308;2022-08-07T01:36:45;9.00;;;5.00;;
69170;SDS011;56279;47.902;12.308;2022-08-07T01:38:51;7.33;;;4.00;;
69170;SDS011;56279;47.902;12.308;2022-08-07T01:40:59;7.05;;;4.10;;
69170;SDS011;56279;47.902;12.308;2022-08-07T01:43:03;6.78;;;3.75;;
69170;SDS011;56279;47.902;12.308;2022-08-07T01:45:06;7.68;;;3.92;;
69170;SDS011;56279;47.902;12.308;2022-08-07T01:47:10;6.03;;;4.10;;
69170;SDS011;56279;47.902;12.308;2022-08-07T01:49:13;6.27;;;3.97;;
69170;SDS011;56279;47.902;12.308;2022-08-07T01:51:18;8.68;;;3.65;;
69170;SDS011;56279;47.902;12.308;2022-08-07T01:53:22;6.80;;;4.22;;
69170;SDS011;56279;47.902;12.308;2022-08-07T01:55:38;8.27;;;4.18;;
69170;SDS011;56279;47.902;12.308;2022-08-07T01:57:45;7.07;;;4.40;;
69170;SDS011;56279;47.902;12.308;2022-08-07T01:59:53;7.63;;;4.20;;
69170;SDS011;56279;47.902;12.308;2022-08-07T02:01:59;6.90;;;3.78;;
69170;SDS011;56279;47.902;12.308;2022-08-07T02:04:08;8.52;;;3.95;;
69170;SDS011;56279;47.902;12.308;2022-08-07T02:06:24;6.07;;;3.47;;
69170;SDS011;56279;47.902;12.308;2022-08-07T02:08:32;6.35;;;4.10;;
69170;SDS011;56279;47.902;12.308;2022-08-07T02:10:38;7.30;;;3.70;;
69170;SDS011;56279;47.902;12.308;2022-08-07T02:12:43;7.28;;;4.00;;
69170;SDS011;56279;47.902;12.308;2022-08-07T02:14:52;6.85;;;3.80;;
69170;SDS011;56279;47.902;12.308;2022-08-07T02:17:04;6.70;;;4.10;;
69170;SDS011;56279;47.902;12.308;2022-08-07T02:19:09;6.63;;;3.65;;
69170;SDS011;56279;47.902;12.308;2022-08-07T02:21:14;5.80;;;3.63;;
69170;SDS011;56279;47.902;12.308;2022-08-07T02:23:17;5.85;;;3.70;;
69170;SDS011;56279;47.902;12.308;2022-08-07T02:25:19;7.45;;;4.10;;
69170;SDS011;56279;47.902;12.308;2022-08-07T02:27:31;6.75;;;4.22;;
69170;SDS011;56279;47.902;12.308;2022-08-07T02:29:33;5.95;;;3.47;;
69170;SDS011;56279;47.902;12.308;2022-08-07T02:31:36;6.50;;;4.00;;
69170;SDS011;56279;47.902;12.308;2022-08-07T02:33:39;6.68;;;4.13;;
69170;SDS011;56279;47.902;12.308;2022-08-07T02:35:40;6.05;;;3.67;;
69170;SDS011;56279;47.902;12.308;2022-08-07T02:37:44;6.72;;;3.90;;
69170;SDS011;56279;47.902;12.308;2022-08-07T02:39:50;6.82;;;4.30;;
69170;SDS011;56279;47.902;12.308;2022-08-07T02:41:54;8.17;;;3.93;;
69170;SDS011;56279;47.902;12.308;2022-08-07T02:43:58;5.70;;;3.35;;
69170;SDS011;56279;47.902;12.308;2022-08-07T02:46:02;7.10;;;4.18;;
69170;SDS011;56279;47.902;12.308;2022-08-07T02:48:07;7.60;;;3.97;;
69170;SDS011;56279;47.902;12.308;2022-08-07T02:50:09;7.95;;;3.60;;
69170;SDS011;56279;47.902;12.308;2022-08-07T02:52:13;6.47;;;3.80;;
69170;SDS011;56279;47.902;12.308;2022-08-07T02:54:19;5.93;;;3.55;;
69170;SDS011;56279;47.902;12.308;2022-08-07T02:56:24;8.00;;;3.80;;
69170;SDS011;56279;47.902;12.308;2022-08-07T02:58:29;6.35;;;3.92;;
69170;SDS011;56279;47.902;12.308;2022-08-07T03:00:33;5.60;;;3.47;;
69170;SDS011;56279;47.902;12.308;2022-08-07T03:02:36;5.80;;;3.67;;
69170;SDS011;56279;47.902;12.308;2022-08-07T03:04:42;9.02;;;3.58;;
69170;SDS011;56279;47.902;12.308;2022-08-07T03:06:44;6.53;;;3.60;;
69170;SDS011;56279;47.902;12.308;2022-08-07T03:08:48;6.43;;;3.72;;
69170;SDS011;56279;47.902;12.308;2022-08-07T03:10:51;6.70;;;3.90;;
69170;SDS011;56279;47.902;12.308;2022-08-07T03:12:59;5.77;;;3.23;;
69170;SDS011;56279;47.902;12.308;2022-08-07T03:15:01;6.28;;;3.85;;
69170;SDS011;56279;47.902;12.308;2022-08-07T03:17:04;6.57;;;3.55;;
69170;SDS011;56279;47.902;12.308;2022-08-07T03:19:07;7.13;;;3.63;;
69170;SDS011;56279;47.902;12.308;2022-08-07T03:21:09;7.75;;;3.90;;
69170;SDS011;56279;47.902;12.308;2022-08-07T03:23:12;9.27;;;4.10;;
69170;SDS011;56279;47.902;12.308;2022-08-07T03:25:14;8.13;;;4.00;;
69170;SDS011;56279;47.902;12.308;2022-08-07T03:27:17;6.35;;;3.80;;
69170;SDS011;56279;47.902;12.308;2022-08-07T03:29:21;6.97;;;3.80;;
69170;SDS011;56279;47.902;12.308;2022-08-07T03:31:22;6.32;;;3.83;;
69170;SDS011;56279;47.902;12.308;2022-08-07T03:33:29;6.63;;;3.47;;
69170;SDS011;56279;47.902;12.308;2022-08-07T03:35:30;5.68;;;3.90;;
69170;SDS011;56279;47.902;12.308;2022-08-07T03:37:35;6.25;;;3.63;;
69170;SDS011;56279;47.902;12.308;2022-08-07T03:39:38;6.95;;;4.00;;
69170;SDS011;56279;47.902;12.308;2022-08-07T03:41:41;15.77;;;4.05;;
69170;SDS011;56279;47.902;12.308;2022-08-07T03:43:43;5.80;;;3.73;;
69170;SDS011;56279;47.902;12.308;2022-08-07T03:45:45;7.25;;;3.67;;
69170;SDS011;56279;47.902;12.308;2022-08-07T03:47:49;7.60;;;4.03;;
69170;SDS011;56279;47.902;12.308;2022-08-07T03:49:51;7.90;;;4.30;;
69170;SDS011;56279;47.902;12.308;2022-08-07T03:51:52;7.07;;;4.28;;
69170;SDS011;56279;47.902;12.308;2022-08-07T03:53:56;8.17;;;3.90;;
69170;SDS011;56279;47.902;12.308;2022-08-07T03:55:59;7.13;;;3.90;;
69170;SDS011;56279;47.902;12.308;2022-08-07T03:58:01;6.80;;;3.95;;
69170;SDS011;56279;47.902;12.308;2022-08-07T04:00:08;6.35;;;3.88;;
69170;SDS011;56279;47.902;12.308;2022-08-07T04:02:17;6.13;;;3.75;;
69170;SDS011;56279;47.902;12.308;2022-08-07T04:04:18;6.10;;;3.70;;
69170;SDS011;56279;47.902;12.308;2022-08-07T04:06:27;5.70;;;3.70;;
69170;SDS011;56279;47.902;12.308;2022-08-07T04:08:28;6.25;;;3.95;;
69170;SDS011;56279;47.902;12.308;2022-08-07T04:10:31;8.55;;;4.05;;
69170;SDS011;56279;47.902;12.308;2022-08-07T04:12:33;6.63;;;4.13;;
69170;SDS011;56279;47.902;12.308;2022-08-07T04:14:34;5.93;;;3.57;;
69170;SDS011;56279;47.902;12.308;2022-08-07T04:16:36;6.10;;;3.80;;
69170;SDS011;56279;47.902;12.308;2022-08-07T04:18:38;7.75;;;3.72;;
69170;SDS011;56279;47.902;12.308;2022-08-07T04:20:40;8.85;;;4.15;;
69170;SDS011;56279;47.902;12.308;2022-08-07T04:22:42;7.80;;;3.83;;
69170;SDS011;56279;47.902;12.308;2022-08-07T04:24:45;5.63;;;3.60;;
69170;SDS011;56279;47.902;12.308;2022-08-07T04:26:48;5.78;;;3.72;;
69170;SDS011;56279;47.902;12.308;2022-08-07T04:28:50;7.10;;;4.07;;
69170;SDS011;56279;47.902;12.308;2022-08-07T04:30:52;5.63;;;3.67;;
69170;SDS011;56279;47.902;12.308;2022-08-07T04:33:08;7.90;;;4.15;;
69170;SDS011;56279;47.902;12.308;2022-08-07T04:35:14;6.00;;;3.70;;
69170;SDS011;56279;47.902;12.308;2022-08-07T04:37:16;5.95;;;3.72;;
69170;SDS011;56279;47.902;12.308;2022-08-07T04:39:18;5.57;;;3.70;;
69170;SDS011;56279;47.902;12.308;2022-08-07T04:41:19;6.97;;;3.88;;
69170;SDS011;56279;47.902;12.308;2022-08-07T04:43:25;6.28;;;3.72;;
69170;SDS011;56279;47.902;12.308;2022-08-07T04:45:37;5.63;;;3.33;;
69170;SDS011;56279;47.902;12.308;2022-08-07T04:52:43;6.53;;;3.60;;
69170;SDS011;56279;47.902;12.308;2022-08-07T04:54:56;5.55;;;3.53;;
69170;SDS011;56279;47.902;12.308;2022-08-07T04:59:06;5.65;;;3.78;;
69170;SDS011;56279;47.902;12.308;2022-08-07T05:03:30;6.40;;;3.45;;
69170;SDS011;56279;47.902;12.308;2022-08-07T05:06:04;5.78;;;3.72;;
69170;SDS011;56279;47.902;12.308;2022-08-07T05:08:11;8.17;;;3.80;;
69170;SDS011;56279;47.902;12.308;2022-08-07T05:10:22;6.60;;;3.75;;
69170;SDS011;56279;47.902;12.308;2022-08-07T05:12:31;6.20;;;3.58;;
69170;SDS011;56279;47.902;12.308;2022-08-07T05:14:44;8.90;;;3.47;;
69170;SDS011;56279;47.902;12.308;2022-08-07T05:16:48;5.55;;;3.50;;
69170;SDS011;56279;47.902;12.308;2022-08-07T05:18:54;5.50;;;3.80;;
69170;SDS011;56279;47.902;12.308;2022-08-07T05:21:02;5.55;;;3.05;;
69170;SDS011;56279;47.902;12.308;2022-08-07T05:23:09;5.85;;;3.30;;
69170;SDS011;56279;47.902;12.308;2022-08-07T05:25:15;5.60;;;3.50;;
69170;SDS011;56279;47.902;12.308;2022-08-07T05:27:19;5.90;;;3.50;;
69170;SDS011;56279;47.902;12.308;2022-08-07T05:29:24;5.57;;;3.30;;
69170;SDS011;56279;47.902;12.308;2022-08-07T05:31:28;7.03;;;3.70;;
69170;SDS011;56279;47.902;12.308;2022-08-07T05:33:39;6.30;;;3.20;;
69170;SDS011;56279;47.902;12.308;2022-08-07T05:35:42;5.38;;;3.50;;
69170;SDS011;56279;47.902;12.308;2022-08-07T05:37:47;5.72;;;3.60;;
69170;SDS011;56279;47.902;12.308;2022-08-07T05:39:49;5.23;;;2.93;;
69170;SDS011;56279;47.902;12.308;2022-08-07T05:41:51;6.25;;;3.30;;
69170;SDS011;56279;47.902;12.308;2022-08-07T05:43:54;8.75;;;3.60;;
69170;SDS011;56279;47.902;12.308;2022-08-07T05:45:56;6.82;;;3.80;;
69170;SDS011;56279;47.902;12.308;2022-08-07T05:47:59;6.00;;;3.50;;
69170;SDS011;56279;47.902;12.308;2022-08-07T05:50:05;6.43;;;3.60;;
69170;SDS011;56279;47.902;12.308;2022-08-07T05:52:08;4.78;;;3.10;;
69170;SDS011;56279;47.902;12.308;2022-08-07T05:54:10;6.78;;;3.35;;
69170;SDS011;56279;47.902;12.308;2022-08-07T05:56:12;5.93;;;3.75;;
69170;SDS011;56279;47.902;12.308;2022-08-07T05:58:20;6.80;;;3.50;;
69170;SDS011;56279;47.902;12.308;2022-08-07T06:00:24;5.70;;;3.70;;
69170;SDS011;56279;47.902;12.308;2022-08-07T06:02:34;5.60;;;3.30;;
69170;SDS011;56279;47.902;12.308;2022-08-07T06:04:39;7.30;;;3.38;;
69170;SDS011;56279;47.902;12.308;2022-08-07T06:06:46;5.53;;;3.13;;
69170;SDS011;56279;47.902;12.308;2022-08-07T06:08:49;6.43;;;3.45;;
69170;SDS011;56279;47.902;12.308;2022-08-07T06:10:52;6.73;;;3.37;;
69170;SDS011;56279;47.902;12.308;2022-08-07T06:12:54;6.85;;;3.25;;
69170;SDS011;56279;47.902;12.308;2022-08-07T06:14:58;5.78;;;3.50;;
69170;SDS011;56279;47.902;12.308;2022-08-07T06:17:00;11.65;;;3.38;;
69170;SDS011;56279;47.902;12.308;2022-08-07T06:19:07;6.47;;;3.47;;
69170;SDS011;56279;47.902;12.308;2022-08-07T06:21:10;6.40;;;3.33;;
69170;SDS011;56279;47.902;12.308;2022-08-07T06:23:13;4.97;;;3.00;;
69170;SDS011;56279;47.902;12.308;2022-08-07T06:25:17;6.10;;;3.58;;
69170;SDS011;56279;47.902;12.308;2022-08-07T06:27:20;5.97;;;3.15;;
69170;SDS011;56279;47.902;12.308;2022-08-07T06:29:28;6.43;;;3.80;;
69170;SDS011;56279;47.902;12.308;2022-08-07T06:31:29;4.77;;;3.37;;
69170;SDS011;56279;47.902;12.308;2022-08-07T06:33:32;5.70;;;3.00;;
69170;SDS011;56279;47.902;12.308;2022-08-07T06:35:34;6.20;;;3.30;;
69170;SDS011;56279;47.902;12.308;2022-08-07T06:37:36;5.82;;;3.55;;
69170;SDS011;56279;47.902;12.308;2022-08-07T06:39:38;7.32;;;3.70;;
69170;SDS011;56279;47.902;12.308;2022-08-07T06:41:42;6.13;;;3.63;;
69170;SDS011;56279;47.902;12.308;2022-08-07T06:43:46;5.00;;;3.28;;
69170;SDS011;56279;47.902;12.308;2022-08-07T06:45:53;5.72;;;3.70;;
69170;SDS011;56279;47.902;12.308;2022-08-07T06:47:56;6.70;;;3.80;;
69170;SDS011;56279;47.902;12.308;2022-08-07T06:49:57;6.55;;;3.60;;
69170;SDS011;56279;47.902;12.308;2022-08-07T06:52:00;6.87;;;4.07;;
69170;SDS011;56279;47.902;12.308;2022-08-07T06:54:03;5.45;;;3.38;;
69170;SDS011;56279;47.902;12.308;2022-08-07T06:56:08;5.50;;;3.00;;
69170;SDS011;56279;47.902;12.308;2022-08-07T06:58:11;7.13;;;3.22;;
69170;SDS011;56279;47.902;12.308;2022-08-07T07:00:24;5.50;;;3.42;;
69170;SDS011;56279;47.902;12.308;2022-08-07T07:02:27;8.53;;;3.60;;
69170;SDS011;56279;47.902;12.308;2022-08-07T07:04:30;5.22;;;3.13;;
69170;SDS011;56279;47.902;12.308;2022-08-07T07:06:32;5.95;;;3.60;;
69170;SDS011;56279;47.902;12.308;2022-08-07T07:08:35;5.97;;;3.90;;
69170;SDS011;56279;47.902;12.308;2022-08-07T07:10:37;6.07;;;3.47;;
69170;SDS011;56279;47.902;12.308;2022-08-07T07:12:41;6.67;;;3.70;;
69170;SDS011;56279;47.902;12.308;2022-08-07T07:16:53;5.88;;;3.65;;
69170;SDS011;56279;47.902;12.308;2022-08-07T07:19:03;6.10;;;3.20;;
69170;SDS011;56279;47.902;12.308;2022-08-07T07:21:10;6.38;;;3.50;;
69170;SDS011;56279;47.902;12.308;2022-08-07T07:23:17;5.67;;;3.60;;
69170;SDS011;56279;47.902;12.308;2022-08-07T07:25:20;5.20;;;3.15;;
69170;SDS011;56279;47.902;12.308;2022-08-07T07:27:22;5.45;;;3.28;;
69170;SDS011;56279;47.902;12.308;2022-08-07T07:29:29;5.78;;;3.40;;
69170;SDS011;56279;47.902;12.308;2022-08-07T07:31:37;5.65;;;3.40;;
69170;SDS011;56279;47.902;12.308;2022-08-07T07:33:41;5.53;;;3.60;;
69170;SDS011;56279;47.902;12.308;2022-08-07T07:35:47;6.15;;;3.30;;
69170;SDS011;56279;47.902;12.308;2022-08-07T07:37:51;5.45;;;3.40;;
69170;SDS011;56279;47.902;12.308;2022-08-07T07:39:56;8.30;;;4.05;;
69170;SDS011;56279;47.902;12.308;2022-08-07T07:42:01;6.07;;;3.45;;
69170;SDS011;56279;47.902;12.308;2022-08-07T07:44:04;6.17;;;3.67;;
69170;SDS011;56279;47.902;12.308;2022-08-07T07:46:10;5.88;;;3.35;;
69170;SDS011;56279;47.902;12.308;2022-08-07T07:48:16;6.05;;;3.42;;
69170;SDS011;56279;47.902;12.308;2022-08-07T07:50:21;7.63;;;3.50;;
69170;SDS011;56279;47.902;12.308;2022-08-07T07:52:23;5.57;;;3.58;;
69170;SDS011;56279;47.902;12.308;2022-08-07T07:54:30;5.23;;;3.43;;
69170;SDS011;56279;47.902;12.308;2022-08-07T07:56:33;4.85;;;3.20;;
69170;SDS011;56279;47.902;12.308;2022-08-07T07:58:36;7.00;;;3.75;;
69170;SDS011;56279;47.902;12.308;2022-08-07T08:00:41;5.32;;;3.20;;
69170;SDS011;56279;47.902;12.308;2022-08-07T08:05:48;6.67;;;3.30;;
69170;SDS011;56279;47.902;12.308;2022-08-07T08:07:51;5.60;;;3.75;;
69170;SDS011;56279;47.902;12.308;2022-08-07T08:09:52;7.07;;;3.75;;
69170;SDS011;56279;47.902;12.308;2022-08-07T08:11:56;5.82;;;3.30;;
69170;SDS011;56279;47.902;12.308;2022-08-07T08:13:59;5.15;;;3.33;;
69170;SDS011;56279;47.902;12.308;2022-08-07T08:16:01;5.70;;;3.20;;
69170;SDS011;56279;47.902;12.308;2022-08-07T08:18:07;4.93;;;2.90;;
69170;SDS011;56279;47.902;12.308;2022-08-07T08:20:11;4.78;;;3.20;;
69170;SDS011;56279;47.902;12.308;2022-08-07T08:22:15;5.82;;;3.72;;
69170;SDS011;56279;47.902;12.308;2022-08-07T08:24:46;4.90;;;2.88;;
69170;SDS011;56279;47.902;12.308;2022-08-07T08:27:07;5.03;;;3.00;;
69170;SDS011;56279;47.902;12.308;2022-08-07T08:29:14;6.68;;;3.15;;
69170;SDS011;56279;47.902;12.308;2022-08-07T08:31:23;6.80;;;3.30;;
69170;SDS011;56279;47.902;12.308;2022-08-07T08:33:28;5.68;;;3.08;;
69170;SDS011;56279;47.902;12.308;2022-08-07T08:35:34;5.38;;;2.85;;
69170;SDS011;56279;47.902;12.308;2022-08-07T08:37:37;4.93;;;2.80;;
69170;SDS011;56279;47.902;12.308;2022-08-07T08:39:41;5.57;;;3.28;;
69170;SDS011;56279;47.902;12.308;2022-08-07T08:42:02;6.05;;;3.10;;
69170;SDS011;56279;47.902;12.308;2022-08-07T08:44:14;4.32;;;2.80;;
69170;SDS011;56279;47.902;12.308;2022-08-07T08:46:37;4.75;;;2.92;;
69170;SDS011;56279;47.902;12.308;2022-08-07T08:50:57;4.57;;;2.72;;
69170;SDS011;56279;47.902;12.308;2022-08-07T08:53:08;5.32;;;3.00;;
69170;SDS011;56279;47.902;12.308;2022-08-07T09:00:08;4.20;;;2.70;;
69170;SDS011;56279;47.902;12.308;2022-08-07T09:02:21;5.35;;;3.20;;
69170;SDS011;56279;47.902;12.308;2022-08-07T09:06:59;5.03;;;2.70;;
69170;SDS011;56279;47.902;12.308;2022-08-07T09:09:20;4.13;;;2.50;;
69170;SDS011;56279;47.902;12.308;2022-08-07T09:16:17;4.35;;;2.70;;
69170;SDS011;56279;47.902;12.308;2022-08-07T09:23:22;4.40;;;2.33;;
69170;SDS011;56279;47.902;12.308;2022-08-07T09:30:25;4.15;;;2.40;;
69170;SDS011;56279;47.902;12.308;2022-08-07T09:35:07;4.17;;;2.57;;
69170;SDS011;56279;47.902;12.308;2022-08-07T09:37:19;5.47;;;2.55;;
69170;SDS011;56279;47.902;12.308;2022-08-07T09:39:38;6.45;;;2.65;;
69170;SDS011;56279;47.902;12.308;2022-08-07T09:44:11;3.65;;;2.20;;
69170;SDS011;56279;47.902;12.308;2022-08-07T09:48:57;2.88;;;2.10;;
69170;SDS011;56279;47.902;12.308;2022-08-07T09:51:02;3.67;;;2.40;;
69170;SDS011;56279;47.902;12.308;2022-08-07T09:53:14;4.00;;;2.40;;
69170;SDS011;56279;47.902;12.308;2022-08-07T10:00:19;5.60;;;2.50;;
69170;SDS011;56279;47.902;12.308;2022-08-07T10:07:01;6.03;;;2.33;;
69170;SDS011;56279;47.902;12.308;2022-08-07T10:09:24;3.73;;;2.10;;
69170;SDS011;56279;47.902;12.308;2022-08-07T10:30:35;4.28;;;2.40;;
69170;SDS011;56279;47.902;12.308;2022-08-07T10:40:24;4.53;;;2.42;;
69170;SDS011;56279;47.902;12.308;2022-08-07T10:42:35;4.00;;;2.63;;
69170;SDS011;56279;47.902;12.308;2022-08-07T10:46:59;4.53;;;2.65;;
69170;SDS011;56279;47.902;12.308;2022-08-07T10:49:25;5.47;;;2.70;;
69170;SDS011;56279;47.902;12.308;2022-08-07T10:52:01;5.30;;;2.80;;
69170;SDS011;56279;47.902;12.308;2022-08-07T10:54:55;4.15;;;2.40;;
69170;SDS011;56279;47.902;12.308;2022-08-07T10:57:14;4.77;;;2.30;;
69170;SDS011;56279;47.902;12.308;2022-08-07T10:59:32;6.38;;;2.30;;
69170;SDS011;56279;47.902;12.308;2022-08-07T11:01:58;3.72;;;2.35;;
69170;SDS011;56279;47.902;12.308;2022-08-07T11:13:23;3.78;;;2.35;;
69170;SDS011;56279;47.902;12.308;2022-08-07T11:15:31;3.85;;;2.40;;
69170;SDS011;56279;47.902;12.308;2022-08-07T11:17:48;4.47;;;2.47;;
69170;SDS011;56279;47.902;12.308;2022-08-07T11:19:57;4.20;;;2.40;;
69170;SDS011;56279;47.902;12.308;2022-08-07T11:22:07;6.45;;;2.72;;
69170;SDS011;56279;47.902;12.308;2022-08-07T11:27:26;4.45;;;2.35;;
69170;SDS011;56279;47.902;12.308;2022-08-07T11:33:52;6.00;;;2.70;;
69170;SDS011;56279;47.902;12.308;2022-08-07T11:36:05;4.93;;;2.72;;
69170;SDS011;56279;47.902;12.308;2022-08-07T11:38:30;3.88;;;2.15;;
69170;SDS011;56279;47.902;12.308;2022-08-07T11:47:55;4.35;;;2.45;;
69170;SDS011;56279;47.902;12.308;2022-08-07T11:55:11;4.67;;;2.20;;
69170;SDS011;56279;47.902;12.308;2022-08-07T11:57:21;4.50;;;2.50;;
69170;SDS011;56279;47.902;12.308;2022-08-07T11:59:36;6.85;;;2.42;;
69170;SDS011;56279;47.902;12.308;2022-08-07T12:01:55;4.13;;;2.38;;
69170;SDS011;56279;47.902;12.308;2022-08-07T12:04:23;4.00;;;2.25;;
69170;SDS011;56279;47.902;12.308;2022-08-07T12:06:47;3.93;;;2.20;;
69170;SDS011;56279;47.902;12.308;2022-08-07T12:08:55;5.43;;;2.33;;
69170;SDS011;56279;47.902;12.308;2022-08-07T12:11:07;5.93;;;2.70;;
69170;SDS011;56279;47.902;12.308;2022-08-07T12:13:24;4.80;;;2.33;;
69170;SDS011;56279;47.902;12.308;2022-08-07T12:15:37;5.20;;;2.67;;
69170;SDS011;56279;47.902;12.308;2022-08-07T12:17:44;5.37;;;2.87;;
69170;SDS011;56279;47.902;12.308;2022-08-07T12:20:02;3.72;;;2.53;;
69170;SDS011;56279;47.902;12.308;2022-08-07T12:24:21;4.15;;;2.47;;
69170;SDS011;56279;47.902;12.308;2022-08-07T12:27:14;6.13;;;2.83;;
69170;SDS011;56279;47.902;12.308;2022-08-07T12:32:10;4.47;;;2.58;;
69170;SDS011;56279;47.902;12.308;2022-08-07T12:34:33;6.18;;;2.60;;
69170;SDS011;56279;47.902;12.308;2022-08-07T12:36:38;3.92;;;2.45;;
69170;SDS011;56279;47.902;12.308;2022-08-07T12:38:44;4.32;;;2.90;;
69170;SDS011;56279;47.902;12.308;2022-08-07T12:40:48;5.00;;;2.57;;
69170;SDS011;56279;47.902;12.308;2022-08-07T12:42:53;5.20;;;2.65;;
69170;SDS011;56279;47.902;12.308;2022-08-07T12:44:57;4.50;;;2.50;;
69170;SDS011;56279;47.902;12.308;2022-08-07T12:51:59;4.23;;;2.37;;
69170;SDS011;56279;47.902;12.308;2022-08-07T12:56:44;5.07;;;2.30;;
69170;SDS011;56279;47.902;12.308;2022-08-07T12:58:49;4.63;;;2.50;;
69170;SDS011;56279;47.902;12.308;2022-08-07T13:14:07;5.28;;;2.28;;
69170;SDS011;56279;47.902;12.308;2022-08-07T13:16:34;4.53;;;2.40;;
69170;SDS011;56279;47.902;12.308;2022-08-07T13:18:52;4.40;;;2.35;;
69170;SDS011;56279;47.902;12.308;2022-08-07T13:21:12;4.03;;;2.50;;
69170;SDS011;56279;47.902;12.308;2022-08-07T13:23:19;5.15;;;2.50;;
69170;SDS011;56279;47.902;12.308;2022-08-07T13:25:29;4.75;;;2.50;;
69170;SDS011;56279;47.902;12.308;2022-08-07T13:30:08;3.50;;;2.10;;
69170;SDS011;56279;47.902;12.308;2022-08-07T13:32:24;4.05;;;2.50;;
69170;SDS011;56279;47.902;12.308;2022-08-07T13:34:50;4.97;;;2.63;;
69170;SDS011;56279;47.902;12.308;2022-08-07T13:36:58;3.80;;;2.50;;
69170;SDS011;56279;47.902;12.308;2022-08-07T13:39:27;3.80;;;2.33;;
69170;SDS011;56279;47.902;12.308;2022-08-07T13:41:51;4.47;;;2.42;;
69170;SDS011;56279;47.902;12.308;2022-08-07T13:43:54;4.65;;;2.50;;
69170;SDS011;56279;47.902;12.308;2022-08-07T13:46:00;4.03;;;2.20;;
69170;SDS011;56279;47.902;12.308;2022-08-07T13:48:03;3.88;;;2.50;;
69170;SDS011;56279;47.902;12.308;2022-08-07T13:50:06;5.63;;;2.93;;
69170;SDS011;56279;47.902;12.308;2022-08-07T13:52:09;5.40;;;2.50;;
69170;SDS011;56279;47.902;12.308;2022-08-07T13:54:12;4.65;;;2.70;;
69170;SDS011;56279;47.902;12.308;2022-08-07T13:56:17;4.53;;;2.55;;
69170;SDS011;56279;47.902;12.308;2022-08-07T13:58:21;4.68;;;2.53;;
69170;SDS011;56279;47.902;12.308;2022-08-07T14:00:53;5.07;;;2.77;;
69170;SDS011;56279;47.902;12.308;2022-08-07T14:02:58;4.75;;;2.58;;
69170;SDS011;56279;47.902;12.308;2022-08-07T14:05:01;3.75;;;2.42;;
69170;SDS011;56279;47.902;12.308;2022-08-07T14:07:06;4.80;;;2.78;;
69170;SDS011;56279;47.902;12.308;2022-08-07T14:09:09;4.65;;;2.53;;
69170;SDS011;56279;47.902;12.308;2022-08-07T14:11:19;3.90;;;2.43;;
69170;SDS011;56279;47.902;12.308;2022-08-07T14:13:25;6.38;;;2.60;;
69170;SDS011;56279;47.902;12.308;2022-08-07T14:15:37;4.75;;;2.50;;
69170;SDS011;56279;47.902;12.308;2022-08-07T14:17:42;5.28;;;2.90;;
69170;SDS011;56279;47.902;12.308;2022-08-07T14:19:51;5.90;;;2.40;;
69170;SDS011;56279;47.902;12.308;2022-08-07T14:22:09;3.93;;;2.37;;
69170;SDS011;56279;47.902;12.308;2022-08-07T14:28:22;4.90;;;2.90;;
69170;SDS011;56279;47.902;12.308;2022-08-07T14:30:26;5.30;;;2.60;;
69170;SDS011;56279;47.902;12.308;2022-08-07T14:32:30;5.22;;;2.65;;
69170;SDS011;56279;47.902;12.308;2022-08-07T14:40:04;3.95;;;2.60;;
69170;SDS011;56279;47.902;12.308;2022-08-07T14:42:21;5.13;;;2.53;;
69170;SDS011;56279;47.902;12.308;2022-08-07T14:44:27;3.97;;;2.40;;
69170;SDS011;56279;47.902;12.308;2022-08-07T14:46:36;4.73;;;2.60;;
69170;SDS011;56279;47.902;12.308;2022-08-07T14:57:53;5.05;;;2.50;;
69170;SDS011;56279;47.902;12.308;2022-08-07T15:16:06;4.30;;;2.60;;
69170;SDS011;56279;47.902;12.308;2022-08-07T15:18:47;3.80;;;2.50;;
69170;SDS011;56279;47.902;12.308;2022-08-07T15:26:06;3.88;;;2.60;;
69170;SDS011;56279;47.902;12.308;2022-08-07T15:31:51;5.33;;;3.10;;
69170;SDS011;56279;47.902;12.308;2022-08-07T15:34:09;4.53;;;2.47;;
69170;SDS011;56279;47.902;12.308;2022-08-07T15:36:23;4.50;;;2.97;;
69170;SDS011;56279;47.902;12.308;2022-08-07T15:38:36;4.45;;;2.92;;